Terminal Aerodrome Forecast
Issued by NWS Chicago, IL

Home | Current Version | Previous Version | Graphics & Text | Print | Product List | Glossary On
Versions: 1 2 3 4 5 6 7 8 9 10 11 12 13 14 15 16 17 18 19 20 21 22 23 24 25 26 27 28 29 30 31 32
000
FTUS43 KLOT 292002 AAA
TAFRFD
TAF AMD
KRFD 292002Z 2920/3018 21015G22KT P6SM VCSH SCT030 BKN040
     FM292100 23015G22KT P6SM SCT040 BKN070
     FM300200 24007KT P6SM VCTS SCT045CB BKN250
     FM300500 23007KT P6SM VCSH BKN045
     FM300800 23007KT 4SM -SHRA SCT020 OVC040
     FM301500 03016G25KT 4SM RA OVC010=

USA.gov is the U.S. government's official web portal to all federal, state and local government web resources and services.